createdAt,value
2024-05-09T00:02:56.383Z,16.96
2024-05-09T00:05:53.995Z,16.75
2024-05-09T00:08:51.479Z,16.86
2024-05-09T00:11:50.098Z,16.78
2024-05-09T00:14:47.605Z,17.16
2024-05-09T00:17:45.431Z,17.01
2024-05-09T00:20:43.748Z,16.94
2024-05-09T00:23:42.328Z,16.96
2024-05-09T00:26:39.896Z,17.1
2024-05-09T00:29:37.395Z,16.95
2024-05-09T00:32:35.124Z,16.76
2024-05-09T00:35:32.630Z,16.95
2024-05-09T00:38:30.184Z,16.94
2024-05-09T00:41:27.710Z,17.03
2024-05-09T00:44:26.264Z,16.7
2024-05-09T00:50:36.529Z,16.78
2024-05-09T00:53:35.883Z,16.6
2024-05-09T00:56:35.440Z,16.88
2024-05-09T00:59:33.929Z,16.97
2024-05-09T01:05:30.010Z,16.8
2024-05-09T01:08:27.626Z,17.1
2024-05-09T01:11:25.194Z,16.97
2024-05-09T01:14:22.679Z,16.87
2024-05-09T01:17:21.338Z,16.92
2024-05-09T01:20:23.047Z,16.72
2024-05-09T01:23:29.340Z,17
2024-05-09T01:26:27.952Z,17.37
2024-05-09T01:29:25.568Z,17.48
2024-05-09T01:32:25.115Z,17.65
2024-05-09T01:35:23.728Z,17.19
2024-05-09T01:38:22.188Z,16.85
2024-05-09T01:41:21.714Z,16.74
2024-05-09T01:44:19.283Z,16.88
2024-05-09T01:47:16.967Z,17.09
2024-05-09T01:53:15.364Z,16.86
2024-05-09T01:56:13.420Z,17.05
2024-05-09T01:59:10.975Z,17.09
2024-05-09T02:02:08.711Z,16.85
2024-05-09T02:05:08.278Z,17.21
2024-05-09T02:08:06.684Z,17.14
2024-05-09T02:11:04.282Z,17.15
2024-05-09T02:14:02.861Z,17.11
2024-05-09T02:17:00.305Z,16.81
2024-05-09T02:19:57.876Z,16.98
2024-05-09T02:22:57.512Z,16.55
2024-05-09T02:25:55.032Z,16.79
2024-05-09T02:28:53.516Z,16.78
2024-05-09T02:31:51.092Z,16.95
2024-05-09T02:34:48.706Z,17.07
2024-05-09T02:37:46.232Z,17.5
2024-05-09T02:40:43.785Z,17.01
2024-05-09T02:43:41.280Z,16.67
2024-05-09T02:46:39.846Z,16.54
2024-05-09T02:49:37.539Z,16.5
2024-05-09T02:52:34.942Z,16.89
2024-05-09T02:55:32.742Z,16.63
2024-05-09T02:58:30.042Z,16.93
2024-05-09T03:01:27.709Z,17.07
2024-05-09T03:04:25.215Z,16.86
2024-05-09T03:07:22.795Z,17.05
2024-05-09T03:10:25.574Z,17
2024-05-09T03:13:27.818Z,16.9
2024-05-09T03:16:25.412Z,17.02
2024-05-09T03:19:24.065Z,17.03
2024-05-09T03:22:21.504Z,16.98
2024-05-09T03:25:19.036Z,17.02
2024-05-09T03:28:16.619Z,17.18
2024-05-09T03:31:14.160Z,17.24
2024-05-09T03:34:11.819Z,17
2024-05-09T03:37:09.275Z,16.7
2024-05-09T03:40:11.818Z,16.55
2024-05-09T03:46:20.889Z,16.65
2024-05-09T03:49:18.686Z,16.92
2024-05-09T03:52:16.008Z,16.53
2024-05-09T03:55:18.531Z,16.71
2024-05-09T03:58:16.092Z,16.57
2024-05-09T04:01:14.761Z,16.9
2024-05-09T04:04:12.302Z,16.99
2024-05-09T04:07:09.789Z,16.72
2024-05-09T04:10:11.267Z,16.98
2024-05-09T04:16:20.457Z,16.64
2024-05-09T04:19:19.181Z,16.55
2024-05-09T04:22:17.855Z,16.33
2024-05-09T04:25:15.067Z,16.58
2024-05-09T04:28:12.800Z,17.19
2024-05-09T04:31:10.172Z,16.93
2024-05-09T04:34:07.880Z,16.34
2024-05-09T04:37:07.370Z,16.53
2024-05-09T04:40:08.906Z,16.52
2024-05-09T04:43:15.406Z,16.66
2024-05-09T04:46:14.906Z,16.56
2024-05-09T04:49:12.567Z,16.38
2024-05-09T04:52:10.028Z,16.04
2024-05-09T04:55:07.591Z,16.11
2024-05-09T04:58:05.146Z,16.53
2024-05-09T05:01:02.772Z,16.27
2024-05-09T05:04:01.410Z,16.07
2024-05-09T05:07:02.145Z,16.26
2024-05-09T05:10:01.343Z,16.08
2024-05-09T05:13:18.190Z,16.05
2024-05-09T05:16:16.437Z,16.46
2024-05-09T05:19:17.468Z,16.84
2024-05-09T05:22:15.532Z,16.82
2024-05-09T05:25:13.191Z,16.87
2024-05-09T05:28:10.766Z,16.46
2024-05-09T05:31:10.249Z,16.3
2024-05-09T05:34:07.789Z,16.49
2024-05-09T05:37:06.314Z,16.48
2024-05-09T05:40:04.394Z,16.45
2024-05-09T05:43:03.400Z,16.58
2024-05-09T05:46:00.982Z,16.62
2024-05-09T05:48:58.617Z,17.04
2024-05-09T05:51:56.088Z,17.24
2024-05-09T05:54:53.973Z,17.38
2024-05-09T05:57:52.222Z,17.07
2024-05-09T06:00:52.813Z,17.32
2024-05-09T06:03:50.520Z,17.34
2024-05-09T06:06:49.856Z,17.54
2024-05-09T06:09:48.271Z,17.65
2024-05-09T06:12:52.083Z,17.62
2024-05-09T06:15:50.507Z,17.59
2024-05-09T06:18:48.258Z,18.02
2024-05-09T06:21:45.628Z,18.14
2024-05-09T06:24:44.157Z,18.01
2024-05-09T06:27:41.728Z,17.69
2024-05-09T06:30:42.097Z,17.41
2024-05-09T06:33:42.311Z,17.53
2024-05-09T06:36:40.389Z,18.09
2024-05-09T06:39:37.951Z,18.44
2024-05-09T06:42:35.500Z,18.13
2024-05-09T06:45:33.062Z,18.2
2024-05-09T06:48:30.752Z,18.42
2024-05-09T06:51:28.184Z,18.25
2024-05-09T06:54:25.720Z,18.54
2024-05-09T06:57:23.301Z,18.93
2024-05-09T07:03:25.592Z,18.96
2024-05-09T07:06:23.961Z,19.02
2024-05-09T07:09:22.491Z,18.88
2024-05-09T07:12:20.155Z,19.01
2024-05-09T07:15:17.634Z,19.09
2024-05-09T07:18:15.571Z,19.29
2024-05-09T07:21:13.928Z,19.59
2024-05-09T07:24:11.289Z,19.98
2024-05-09T07:27:08.831Z,20.11
2024-05-09T07:30:09.441Z,19.84
2024-05-09T07:33:09.145Z,19.57
2024-05-09T07:36:07.468Z,19.45
2024-05-09T07:39:06.062Z,19.61
2024-05-09T07:42:03.587Z,19.89
2024-05-09T07:45:21.320Z,19.85
2024-05-09T07:54:21.981Z,19.92
2024-05-09T07:57:19.380Z,19.89
2024-05-09T08:00:20.488Z,19.99
2024-05-09T08:03:29.541Z,20.14
2024-05-09T08:06:27.072Z,20.24
2024-05-09T08:09:24.498Z,20.27
2024-05-09T08:12:25.061Z,20.1
2024-05-09T08:15:22.650Z,20.14
2024-05-09T08:18:20.507Z,20.15
2024-05-09T08:21:20.707Z,20.2
2024-05-09T08:24:19.265Z,20.69
2024-05-09T08:27:17.840Z,20.51
2024-05-09T08:30:22.005Z,20.51
2024-05-09T08:33:28.073Z,20.39
2024-05-09T08:36:26.481Z,20.79
2024-05-09T08:39:24.010Z,20.69
2024-05-09T08:42:24.551Z,20.82
2024-05-09T08:45:22.476Z,21.06
2024-05-09T08:48:23.846Z,21.17
2024-05-09T08:51:24.239Z,21.16
2024-05-09T08:54:22.798Z,20.48
2024-05-09T08:57:22.308Z,21.01
2024-05-09T09:00:33.724Z,20.87
2024-05-09T09:03:36.831Z,21.27
2024-05-09T09:06:35.974Z,21.43
2024-05-09T09:09:34.559Z,21.61
2024-05-09T09:12:32.193Z,21.23
2024-05-09T09:15:29.664Z,21.73
2024-05-09T09:18:30.624Z,21.79
2024-05-09T09:21:29.767Z,21.98
2024-05-09T09:24:27.338Z,21.96
2024-05-09T09:27:24.797Z,21.89
2024-05-09T09:30:31.643Z,22.1
2024-05-09T09:33:35.926Z,22.09
2024-05-09T09:36:36.484Z,22.14
2024-05-09T09:39:35.019Z,22.2
2024-05-09T09:42:35.572Z,22.56
2024-05-09T09:45:34.193Z,22.96
2024-05-09T09:48:33.774Z,22.63
2024-05-09T09:51:32.237Z,22.55
2024-05-09T09:54:29.812Z,22.47
2024-05-09T09:57:30.339Z,23.1
2024-05-09T10:00:33.324Z,23.11
2024-05-09T10:03:31.583Z,22.9
2024-05-09T10:06:28.989Z,22.81
2024-05-09T10:09:27.648Z,23.34
2024-05-09T10:12:26.149Z,23.39
2024-05-09T10:15:24.637Z,22.83
2024-05-09T10:18:28.524Z,22.89
2024-05-09T10:21:28.769Z,22.73
2024-05-09T10:24:47.272Z,22.21
2024-05-09T10:31:03.107Z,23.43
2024-05-09T10:34:07.993Z,23.69
2024-05-09T10:37:05.439Z,23.52
2024-05-09T10:40:14.084Z,23.55
2024-05-09T10:43:19.937Z,23.9
2024-05-09T10:46:19.927Z,24.96
2024-05-09T10:49:17.771Z,25.1
2024-05-09T10:52:15.303Z,24.49
2024-05-09T10:55:12.672Z,24.84
2024-05-09T10:58:17.305Z,23.24
2024-05-09T11:01:20.856Z,24.17
2024-05-09T11:04:20.509Z,24.88
2024-05-09T11:07:20.917Z,24.14
2024-05-09T11:10:27.100Z,24.74
2024-05-09T11:13:29.945Z,24.65
2024-05-09T11:16:27.558Z,24.16
2024-05-09T11:19:31.082Z,24.5
2024-05-09T11:22:31.560Z,25.1
2024-05-09T11:25:30.134Z,25.58
2024-05-09T11:28:31.729Z,24.99
2024-05-09T11:31:45.259Z,23.97
2024-05-09T11:34:43.814Z,25.17
2024-05-09T11:37:46.308Z,24.99
2024-05-09T11:40:43.946Z,24.04
2024-05-09T11:43:41.408Z,25.01
2024-05-09T11:46:39.303Z,25.12
2024-05-09T11:49:36.592Z,25.42
2024-05-09T11:52:35.059Z,23.68
2024-05-09T11:55:35.676Z,24.47
2024-05-09T11:58:34.176Z,24.54
2024-05-09T12:01:32.038Z,23.9
2024-05-09T12:04:30.425Z,23.52
2024-05-09T12:07:27.926Z,23.66
2024-05-09T12:10:32.854Z,24.08
2024-05-09T12:13:33.072Z,23.06
2024-05-09T12:16:30.575Z,23.56
2024-05-09T12:19:28.095Z,23.18
2024-05-09T12:22:25.661Z,24.42
2024-05-09T12:25:23.206Z,24.69
2024-05-09T12:28:20.772Z,24.25
2024-05-09T12:31:18.327Z,24.36
2024-05-09T12:34:15.950Z,24.82
2024-05-09T12:37:20.419Z,24.93
2024-05-09T12:40:30.652Z,23.87
2024-05-09T12:43:32.546Z,23.48
2024-05-09T12:46:34.003Z,24.35
2024-05-09T12:49:31.785Z,23.5
2024-05-09T12:52:29.108Z,23.26
2024-05-09T12:55:28.089Z,22.72
2024-05-09T12:58:27.716Z,22.55
2024-05-09T13:01:25.805Z,22.42
2024-05-09T13:04:23.471Z,23.59
2024-05-09T13:07:21.896Z,24.12
2024-05-09T13:10:25.653Z,23.54
2024-05-09T13:13:29.008Z,22.53
2024-05-09T13:16:27.603Z,22.47
2024-05-09T13:19:25.089Z,22.01
2024-05-09T13:22:22.638Z,21.53
2024-05-09T13:25:20.204Z,21.65
2024-05-09T13:28:19.024Z,21.63
2024-05-09T13:31:17.318Z,21.63
2024-05-09T13:34:14.925Z,21.86
2024-05-09T13:37:12.524Z,21.73
2024-05-09T13:40:14.021Z,21.65
2024-05-09T13:43:12.577Z,21.46
2024-05-09T13:46:10.113Z,21.41
2024-05-09T13:49:08.657Z,21.39
2024-05-09T13:52:08.219Z,21.19
2024-05-09T13:55:06.801Z,20.97
2024-05-09T13:58:04.302Z,21
2024-05-09T14:01:02.929Z,21.05
2024-05-09T14:04:02.589Z,21.26
2024-05-09T14:06:59.997Z,20.99
2024-05-09T14:09:57.508Z,21.14
2024-05-09T14:13:04.031Z,21.12
2024-05-09T14:16:01.645Z,21.48
2024-05-09T14:18:59.148Z,21.74
2024-05-09T14:21:57.742Z,22.15
2024-05-09T14:24:55.293Z,21.87
2024-05-09T14:27:52.874Z,21.71
2024-05-09T14:30:51.489Z,21.6
2024-05-09T14:33:55.089Z,21.39
2024-05-09T14:36:52.508Z,21.39
2024-05-09T14:39:52.099Z,21.58
2024-05-09T14:42:49.585Z,21.61
2024-05-09T14:45:48.185Z,21.81
2024-05-09T14:48:47.750Z,21.8
2024-05-09T14:51:47.298Z,22.17
2024-05-09T14:54:45.017Z,21.94
2024-05-09T14:57:43.358Z,21.99
2024-05-09T15:00:45.688Z,21.76
2024-05-09T15:03:48.570Z,21.68
2024-05-09T15:06:48.997Z,21.82
2024-05-09T15:09:46.567Z,21.49
2024-05-09T15:12:44.097Z,21.21
2024-05-09T15:15:42.708Z,21.19
2024-05-09T15:18:43.138Z,21.18
2024-05-09T15:21:41.809Z,21.54
2024-05-09T15:24:41.678Z,21.66
2024-05-09T15:27:39.881Z,21.27
2024-05-09T15:30:37.877Z,21.48
2024-05-09T15:33:35.997Z,21.44
2024-05-09T15:36:33.562Z,21.46
2024-05-09T15:39:32.109Z,21.49
2024-05-09T15:42:35.658Z,21.38
2024-05-09T15:45:33.336Z,21.34
2024-05-09T15:48:30.894Z,21.43
2024-05-09T15:51:28.286Z,21.38
2024-05-09T15:54:25.879Z,21.36
2024-05-09T15:57:24.452Z,21.25
2024-05-09T16:00:36.249Z,21.21
2024-05-09T16:03:38.729Z,21.22
2024-05-09T16:06:37.111Z,21.12
2024-05-09T16:09:34.612Z,21.13
2024-05-09T16:12:32.207Z,21.08
2024-05-09T16:15:30.985Z,20.86
2024-05-09T16:18:29.257Z,21.04
2024-05-09T16:21:32.203Z,20.88
2024-05-09T16:24:30.483Z,20.8
2024-05-09T16:27:28.906Z,20.89
2024-05-09T16:30:31.874Z,20.78
2024-05-09T16:33:33.393Z,20.82
2024-05-09T16:36:31.935Z,20.88
2024-05-09T16:39:30.164Z,20.68
2024-05-09T16:42:33.382Z,20.71
2024-05-09T16:45:32.229Z,20.74
2024-05-09T16:48:31.881Z,20.58
2024-05-09T16:51:29.303Z,20.6
2024-05-09T16:54:26.857Z,20.43
2024-05-09T16:57:24.408Z,20.32
2024-05-09T17:00:30.710Z,20.33
2024-05-09T17:03:34.731Z,20.46
2024-05-09T17:06:36.079Z,20.44
2024-05-09T17:09:34.684Z,20.33
2024-05-09T17:12:32.240Z,20.39
2024-05-09T17:15:29.747Z,20.41
2024-05-09T17:18:28.296Z,20.21
2024-05-09T17:21:26.800Z,20.25
2024-05-09T17:24:28.347Z,20.32
2024-05-09T17:27:28.915Z,20.13
2024-05-09T17:30:35.532Z,20.1
2024-05-09T17:33:35.160Z,19.86
2024-05-09T17:36:36.952Z,19.81
2024-05-09T17:39:36.181Z,19.78
2024-05-09T17:42:34.688Z,19.73
2024-05-09T17:45:37.236Z,19.72
2024-05-09T17:48:36.876Z,19.64
2024-05-09T17:51:35.354Z,19.56
2024-05-09T17:54:35.933Z,19.46
2024-05-09T17:57:34.439Z,19.33
2024-05-09T18:00:39.285Z,19.25
2024-05-09T18:03:45.668Z,19.28
2024-05-09T18:06:47.433Z,19.27
2024-05-09T18:09:45.601Z,19.24
2024-05-09T18:12:43.233Z,19.19
2024-05-09T18:15:41.979Z,19.19
2024-05-09T18:18:39.422Z,19.16
2024-05-09T18:21:38.885Z,19.19
2024-05-09T18:24:40.442Z,19.04
2024-05-09T18:27:38.037Z,19.06
2024-05-09T18:30:37.454Z,19.07
2024-05-09T18:33:36.367Z,18.95
2024-05-09T18:36:34.585Z,19
2024-05-09T18:39:32.151Z,18.88
2024-05-09T18:42:30.718Z,18.85
2024-05-09T18:45:33.266Z,18.92
2024-05-09T18:48:36.924Z,18.81
2024-05-09T18:51:45.674Z,18.68
2024-05-09T18:54:43.933Z,18.63
2024-05-09T18:57:46.789Z,18.58
2024-05-09T19:00:54.304Z,18.56
2024-05-09T19:03:53.613Z,18.47
2024-05-09T19:06:51.054Z,18.47
2024-05-09T19:09:49.680Z,18.39
2024-05-09T19:12:48.223Z,18.53
2024-05-09T19:15:45.986Z,18.5
2024-05-09T19:18:44.438Z,18.46
2024-05-09T19:21:47.913Z,18.29
2024-05-09T19:24:54.484Z,18.32
2024-05-09T19:28:03.032Z,18.2
2024-05-09T19:31:01.474Z,18.13
2024-05-09T19:34:05.138Z,18.21
2024-05-09T19:37:03.585Z,18.21
2024-05-09T19:40:10.370Z,17.87
2024-05-09T19:43:20.094Z,17.81
2024-05-09T19:46:23.163Z,17.84
2024-05-09T19:49:21.766Z,17.79
2024-05-09T19:52:24.261Z,17.76
2024-05-09T19:55:27.790Z,17.76
2024-05-09T19:58:29.789Z,17.68
2024-05-09T20:01:35.036Z,17.73
2024-05-09T20:04:34.722Z,17.67
2024-05-09T20:07:44.917Z,17.57
2024-05-09T20:10:46.665Z,17.51
2024-05-09T20:13:47.044Z,17.47
2024-05-09T20:16:51.720Z,17.4
2024-05-09T20:20:07.407Z,17.41
2024-05-09T20:23:06.611Z,17.37
2024-05-09T20:26:09.151Z,17.31
2024-05-09T20:29:11.722Z,17.2
2024-05-09T20:32:09.424Z,17.15
2024-05-09T20:35:06.772Z,17.12
2024-05-09T20:38:07.348Z,17.07
2024-05-09T20:41:05.950Z,17.02
2024-05-09T20:44:03.479Z,17.03
2024-05-09T20:47:05.991Z,16.87
2024-05-09T20:50:05.201Z,16.88
2024-05-09T20:53:06.117Z,16.83
2024-05-09T20:56:05.038Z,16.8
2024-05-09T20:59:03.246Z,16.85
2024-05-09T21:02:05.883Z,16.67
2024-05-09T21:05:12.911Z,16.73
2024-05-09T21:08:10.863Z,16.67
2024-05-09T21:11:08.397Z,16.63
2024-05-09T21:14:07.953Z,16.59
2024-05-09T21:17:06.671Z,16.41
2024-05-09T21:20:07.302Z,16.37
2024-05-09T21:23:07.632Z,16.42
2024-05-09T21:26:07.161Z,16.42
2024-05-09T21:29:04.715Z,16.37
2024-05-09T21:32:02.285Z,16.45
2024-05-09T21:34:59.868Z,16.36
2024-05-09T21:37:58.377Z,16.38
2024-05-09T21:40:58.042Z,16.42
2024-05-09T21:43:55.486Z,16.41
2024-05-09T21:46:54.119Z,16.31
2024-05-09T21:49:51.604Z,16.21
2024-05-09T21:52:49.164Z,16.2
2024-05-09T21:55:46.722Z,16.01
2024-05-09T21:58:45.362Z,15.97
2024-05-09T22:01:42.919Z,15.96
2024-05-09T22:04:40.594Z,16.55
2024-05-09T22:07:38.949Z,16.81
2024-05-09T22:10:37.251Z,16.87
2024-05-09T22:13:35.074Z,17.04
2024-05-09T22:16:32.697Z,17.28
2024-05-09T22:19:31.167Z,17.31
2024-05-09T22:22:28.761Z,17.2
2024-05-09T22:25:30.684Z,17.05
2024-05-09T22:28:28.829Z,16.91
2024-05-09T22:31:28.532Z,17.15
2024-05-09T22:34:26.151Z,17.02
2024-05-09T22:37:23.557Z,16.95
2024-05-09T22:40:32.204Z,16.59
2024-05-09T22:43:36.571Z,16.37
2024-05-09T22:46:35.196Z,16.4
2024-05-09T22:49:32.678Z,16.32
2024-05-09T22:52:32.220Z,15.93
2024-05-09T22:55:29.778Z,15.9
2024-05-09T22:58:27.516Z,15.49
2024-05-09T23:01:26.709Z,15.38
2024-05-09T23:04:24.518Z,15.03
2024-05-09T23:07:24.023Z,14.99
2024-05-09T23:10:28.250Z,15.08
2024-05-09T23:13:34.136Z,14.88
2024-05-09T23:16:31.660Z,15.14
2024-05-09T23:19:30.262Z,15.82
2024-05-09T23:22:27.751Z,15.77
2024-05-09T23:25:26.337Z,16.36
2024-05-09T23:28:24.013Z,16.5
2024-05-09T23:31:21.517Z,16.22
2024-05-09T23:34:19.177Z,16.65
2024-05-09T23:37:16.610Z,16.58
2024-05-09T23:40:18.663Z,16.72
2024-05-09T23:43:16.682Z,16.92
2024-05-09T23:46:14.190Z,16.63
2024-05-09T23:49:11.836Z,16.4
2024-05-09T23:52:10.331Z,16.27
2024-05-09T23:55:07.873Z,16.12
2024-05-09T23:58:05.649Z,16.34
